createdAt,value
2018-11-21T00:01:45.345Z,2.20
2018-11-21T00:04:14.978Z,2.19
2018-11-21T00:06:46.299Z,2.14
2018-11-21T00:09:14.343Z,2.23
2018-11-21T00:11:44.010Z,2.16
2018-11-21T00:14:13.667Z,2.04
2018-11-21T00:16:43.362Z,2.12
2018-11-21T00:19:13.057Z,2.04
2018-11-21T00:21:42.679Z,2.04
2018-11-21T00:24:12.455Z,2.07
2018-11-21T00:26:42.154Z,2.02
2018-11-21T00:29:11.807Z,2.00
2018-11-21T00:31:41.584Z,2.00
2018-11-21T00:34:11.221Z,1.96
2018-11-21T00:36:41.093Z,1.89
2018-11-21T00:39:11.707Z,1.92
2018-11-21T00:41:41.983Z,1.87
2018-11-21T00:44:11.751Z,1.95
2018-11-21T00:46:42.093Z,1.91
2018-11-21T00:49:13.448Z,1.97
2018-11-21T00:51:41.404Z,1.97
2018-11-21T00:54:11.102Z,2.07
2018-11-21T00:56:41.126Z,1.93
2018-11-21T00:59:10.930Z,1.92
2018-11-21T01:01:40.699Z,2.01
2018-11-21T01:04:10.449Z,2.00
2018-11-21T01:06:40.222Z,1.99
2018-11-21T01:09:09.928Z,1.80
2018-11-21T01:11:39.626Z,1.83
2018-11-21T01:14:09.350Z,1.77
2018-11-21T01:16:40.790Z,1.75
2018-11-21T01:19:10.550Z,1.73
2018-11-21T01:21:40.340Z,1.77
2018-11-21T01:24:09.970Z,1.73
2018-11-21T01:26:39.788Z,1.72
2018-11-21T01:29:09.542Z,1.66
2018-11-21T01:31:39.157Z,1.69
2018-11-21T01:34:08.885Z,1.82
2018-11-21T01:36:39.005Z,1.71
2018-11-21T01:39:11.306Z,1.75
2018-11-21T01:41:41.474Z,1.83
2018-11-21T01:44:11.614Z,1.80
2018-11-21T01:46:41.336Z,1.72
2018-11-21T01:49:10.891Z,1.72
2018-11-21T01:51:40.582Z,1.70
2018-11-21T01:54:10.412Z,1.70
2018-11-21T01:56:40.185Z,1.70
2018-11-21T01:59:10.286Z,1.74
2018-11-21T02:01:40.197Z,1.79
2018-11-21T02:04:09.889Z,1.92
2018-11-21T02:06:39.529Z,1.95
2018-11-21T02:09:11.670Z,1.73
2018-11-21T02:11:41.477Z,1.69
2018-11-21T02:14:11.302Z,1.80
2018-11-21T02:16:40.984Z,1.88
2018-11-21T02:19:10.702Z,1.93
2018-11-21T02:21:40.474Z,1.89
2018-11-21T02:24:10.191Z,1.90
2018-11-21T02:26:39.835Z,1.89
2018-11-21T02:29:09.618Z,1.73
2018-11-21T02:31:39.309Z,1.76
2018-11-21T02:34:09.214Z,1.66
2018-11-21T02:36:38.864Z,1.74
2018-11-21T02:39:11.246Z,1.80
2018-11-21T02:41:40.896Z,1.79
2018-11-21T02:44:10.602Z,1.79
2018-11-21T02:46:40.105Z,1.73
2018-11-21T02:49:10.142Z,1.63
2018-11-21T02:51:40.115Z,1.59
2018-11-21T02:54:09.861Z,1.60
2018-11-21T02:57:20.869Z,1.60
2018-11-21T02:59:53.274Z,1.60
2018-11-21T03:02:23.046Z,1.65
2018-11-21T03:04:52.877Z,1.63
2018-11-21T03:07:22.648Z,1.62
2018-11-21T03:09:52.331Z,1.50
2018-11-21T03:12:22.085Z,1.48
2018-11-21T03:14:51.859Z,1.52
2018-11-21T03:17:21.644Z,1.49
2018-11-21T03:19:51.440Z,1.59
2018-11-21T03:22:21.293Z,1.62
2018-11-21T03:24:50.973Z,1.49
2018-11-21T03:27:20.704Z,1.46
2018-11-21T03:29:50.464Z,1.47
2018-11-21T03:32:20.119Z,1.37
2018-11-21T03:34:49.750Z,1.35
2018-11-21T03:37:19.582Z,1.40
2018-11-21T03:39:49.333Z,1.40
2018-11-21T03:42:19.026Z,1.42
2018-11-21T03:44:48.763Z,1.40
2018-11-21T03:47:18.504Z,1.45
2018-11-21T03:49:48.137Z,1.59
2018-11-21T03:52:17.830Z,1.67
2018-11-21T03:54:47.455Z,1.50
2018-11-21T03:57:17.196Z,1.38
2018-11-21T03:59:46.839Z,1.35
2018-11-21T04:02:16.461Z,1.56
2018-11-21T04:04:46.113Z,1.39
2018-11-21T04:07:15.903Z,1.44
2018-11-21T04:09:45.580Z,1.50
2018-11-21T04:12:15.257Z,1.48
2018-11-21T04:14:45.367Z,1.47
2018-11-21T04:17:15.021Z,1.58
2018-11-21T04:19:44.700Z,1.45
2018-11-21T04:22:14.323Z,1.45
2018-11-21T04:24:44.242Z,1.44
2018-11-21T04:27:14.984Z,1.38
2018-11-21T04:29:44.736Z,1.49
2018-11-21T04:32:14.432Z,1.54
2018-11-21T04:34:44.146Z,1.42
2018-11-21T04:37:13.856Z,1.48
2018-11-21T04:39:43.643Z,1.40
2018-11-21T04:42:13.296Z,1.44
2018-11-21T04:44:42.983Z,1.42
2018-11-21T04:47:12.845Z,1.33
2018-11-21T04:49:42.589Z,1.37
2018-11-21T04:52:12.293Z,1.33
2018-11-21T04:54:42.105Z,1.38
2018-11-21T04:57:11.881Z,1.30
2018-11-21T04:59:41.572Z,1.33
2018-11-21T05:02:11.281Z,1.36
2018-11-21T05:04:40.977Z,1.38
2018-11-21T05:07:10.679Z,1.41
2018-11-21T05:09:40.440Z,1.45
2018-11-21T05:12:10.168Z,1.43
2018-11-21T05:14:39.892Z,1.47
2018-11-21T05:17:10.642Z,1.54
2018-11-21T05:19:40.487Z,1.43
2018-11-21T05:22:10.203Z,1.56
2018-11-21T05:24:39.847Z,1.57
2018-11-21T05:27:09.620Z,1.45
2018-11-21T05:29:39.757Z,1.45
2018-11-21T05:32:09.515Z,1.46
2018-11-21T05:34:39.672Z,1.47
2018-11-21T05:37:09.495Z,1.47
2018-11-21T05:39:39.322Z,1.38
2018-11-21T05:42:08.976Z,1.48
2018-11-21T05:44:38.782Z,1.42
2018-11-21T05:47:08.608Z,1.51
2018-11-21T05:49:38.343Z,1.41
2018-11-21T05:52:08.953Z,1.51
2018-11-21T05:54:38.814Z,1.47
2018-11-21T05:57:08.500Z,1.37
2018-11-21T05:59:38.385Z,1.45
2018-11-21T06:02:08.148Z,1.44
2018-11-21T06:04:37.940Z,1.51
2018-11-21T06:07:07.722Z,1.37
2018-11-21T06:09:37.728Z,1.34
2018-11-21T06:12:07.902Z,1.32
2018-11-21T06:14:37.566Z,1.41
2018-11-21T06:17:07.386Z,1.30
2018-11-21T06:19:37.175Z,1.28
2018-11-21T06:22:08.140Z,1.29
2018-11-21T06:24:37.967Z,1.34
2018-11-21T06:27:07.957Z,1.26
2018-11-21T06:29:37.960Z,1.28
2018-11-21T06:32:07.746Z,1.30
2018-11-21T06:34:37.571Z,1.27
2018-11-21T06:37:07.302Z,1.17
2018-11-21T06:39:37.008Z,1.22
2018-11-21T06:42:07.057Z,1.21
2018-11-21T06:44:36.753Z,1.39
2018-11-21T06:47:07.051Z,1.29
2018-11-21T06:49:36.696Z,1.27
2018-11-21T06:52:06.446Z,1.21
2018-11-21T06:54:36.101Z,1.23
2018-11-21T06:57:06.052Z,1.20
2018-11-21T06:59:36.247Z,1.25
2018-11-21T07:02:06.325Z,1.25
2018-11-21T07:04:36.108Z,1.27
2018-11-21T07:07:06.318Z,1.40
2018-11-21T07:09:36.028Z,1.14
2018-11-21T07:12:05.996Z,1.09
2018-11-21T07:14:35.759Z,1.04
2018-11-21T07:17:05.624Z,1.12
2018-11-21T07:19:35.363Z,1.23
2018-11-21T07:22:05.180Z,1.30
2018-11-21T07:24:34.880Z,1.35
2018-11-21T07:27:04.603Z,1.29
2018-11-21T07:29:34.680Z,1.27
2018-11-21T07:32:04.016Z,1.27
2018-11-21T07:34:33.652Z,1.25
2018-11-21T07:37:03.334Z,1.24
2018-11-21T07:39:33.044Z,1.19
2018-11-21T07:42:02.771Z,1.20
2018-11-21T07:44:32.925Z,1.18
2018-11-21T07:47:02.608Z,1.26
2018-11-21T07:49:32.344Z,1.30
2018-11-21T07:52:02.154Z,1.39
2018-11-21T07:54:31.758Z,1.43
2018-11-21T07:57:30.212Z,1.48
2018-11-21T08:00:52.757Z,1.45
2018-11-21T08:03:23.540Z,1.41
2018-11-21T08:05:58.919Z,1.45
2018-11-21T08:08:47.519Z,1.36
2018-11-21T08:11:36.271Z,1.56
2018-11-21T08:14:23.740Z,1.69
2018-11-21T08:17:10.868Z,1.61
2018-11-21T08:20:05.719Z,1.78
2018-11-21T08:23:03.226Z,1.80
2018-11-21T08:25:42.157Z,1.98
2018-11-21T08:28:28.934Z,1.79
2018-11-21T08:30:58.631Z,1.72
2018-11-21T08:33:33.831Z,1.98
2018-11-21T08:35:58.895Z,1.75
2018-11-21T08:38:28.586Z,2.13
2018-11-21T08:40:58.230Z,1.99
2018-11-21T08:43:27.887Z,2.21
2018-11-21T08:45:57.695Z,2.04
2018-11-21T08:48:27.499Z,2.13
2018-11-21T08:50:57.750Z,2.06
2018-11-21T08:53:27.420Z,2.00
2018-11-21T08:55:57.178Z,2.17
2018-11-21T08:58:26.873Z,1.87
2018-11-21T09:00:56.569Z,2.12
2018-11-21T09:03:26.235Z,2.22
2018-11-21T09:05:55.902Z,2.32
2018-11-21T09:08:26.157Z,2.00
2018-11-21T09:10:55.866Z,2.17
2018-11-21T09:13:25.494Z,1.94
2018-11-21T09:15:55.217Z,2.02
2018-11-21T09:18:28.024Z,1.93
2018-11-21T09:20:57.697Z,1.93
2018-11-21T09:23:27.387Z,1.93
2018-11-21T09:25:57.114Z,1.78
2018-11-21T09:28:26.813Z,1.95
2018-11-21T09:30:56.611Z,2.02
2018-11-21T09:33:26.369Z,1.83
2018-11-21T09:35:56.158Z,1.94
2018-11-21T09:38:25.909Z,1.94
2018-11-21T09:40:55.707Z,1.86
2018-11-21T09:43:25.446Z,1.89
2018-11-21T09:45:55.218Z,1.83
2018-11-21T09:48:24.965Z,1.83
2018-11-21T09:50:54.919Z,2.09
2018-11-21T09:53:24.684Z,1.94
2018-11-21T09:55:54.430Z,2.02
2018-11-21T09:58:24.203Z,2.07
2018-11-21T10:01:48.767Z,2.27
2018-11-21T10:04:19.659Z,2.10
2018-11-21T10:06:49.454Z,2.43
2018-11-21T10:09:21.990Z,2.49
2018-11-21T10:11:51.727Z,2.27
2018-11-21T10:14:21.434Z,2.00
2018-11-21T10:16:51.178Z,1.91
2018-11-21T10:19:20.876Z,2.09
2018-11-21T10:21:51.046Z,2.09
2018-11-21T10:24:20.804Z,2.20
2018-11-21T10:26:50.430Z,2.25
2018-11-21T10:29:20.294Z,2.10
2018-11-21T10:31:50.005Z,2.18
2018-11-21T10:34:19.759Z,2.03
2018-11-21T10:36:49.453Z,1.98
2018-11-21T10:39:19.225Z,1.95
2018-11-21T10:41:48.922Z,2.24
2018-11-21T10:44:18.639Z,2.53
2018-11-21T10:46:48.281Z,2.27
2018-11-21T10:49:18.021Z,2.33
2018-11-21T10:51:47.740Z,2.78
2018-11-21T10:54:17.798Z,2.74
2018-11-21T10:56:48.413Z,2.53
2018-11-21T10:59:18.457Z,2.80
2018-11-21T11:02:06.206Z,2.40
2018-11-21T11:04:49.865Z,2.16
2018-11-21T11:07:39.485Z,2.16
2018-11-21T11:10:26.716Z,2.36
2018-11-21T11:13:27.517Z,2.57
2018-11-21T11:16:27.422Z,2.20
2018-11-21T11:19:19.013Z,2.16
2018-11-21T11:22:06.577Z,2.51
2018-11-21T11:25:01.460Z,2.64
2018-11-21T11:27:50.281Z,2.54
2018-11-21T11:30:53.920Z,2.32
2018-11-21T11:33:34.198Z,2.33
2018-11-21T11:36:31.763Z,2.42
2018-11-21T11:39:18.933Z,2.25
2018-11-21T11:42:19.627Z,2.37
2018-11-21T11:45:07.109Z,2.30
2018-11-21T11:48:09.967Z,2.25
2018-11-21T11:50:57.397Z,2.20
2018-11-21T11:53:45.015Z,2.30
2018-11-21T11:56:51.839Z,2.44
2018-11-21T11:59:52.617Z,2.42
2018-11-21T12:02:59.488Z,2.40
2018-11-21T12:05:46.711Z,2.18
2018-11-21T12:08:53.714Z,2.15
2018-11-21T12:11:51.541Z,2.30
2018-11-21T12:14:52.167Z,2.11
2018-11-21T12:17:59.319Z,2.02
2018-11-21T12:21:05.996Z,2.21
2018-11-21T12:23:54.722Z,1.93
2018-11-21T12:26:32.779Z,2.14
2018-11-21T12:29:09.512Z,2.34
2018-11-21T12:31:56.760Z,2.44
2018-11-21T12:34:51.009Z,1.96
2018-11-21T12:37:38.599Z,1.92
2018-11-21T12:40:28.151Z,2.00
2018-11-21T12:43:16.841Z,2.20
2018-11-21T12:46:04.108Z,2.12
2018-11-21T12:48:51.202Z,1.93
2018-11-21T12:51:45.515Z,1.95
2018-11-21T12:54:39.813Z,2.05
2018-11-21T12:57:28.281Z,2.00
2018-11-21T13:00:21.826Z,1.98
2018-11-21T13:03:05.451Z,1.94
2018-11-21T13:05:54.476Z,2.14
2018-11-21T13:08:43.109Z,2.13
2018-11-21T13:11:40.872Z,1.95
2018-11-21T13:14:20.821Z,2.31
2018-11-21T13:17:09.458Z,2.24
2018-11-21T13:19:49.455Z,1.95
2018-11-21T13:22:36.510Z,2.05
2018-11-21T13:25:28.786Z,2.11
2018-11-21T13:28:16.612Z,1.93
2018-11-21T13:31:05.165Z,2.02
2018-11-21T13:33:52.604Z,2.08
2018-11-21T13:36:50.188Z,2.09
2018-11-21T13:39:47.528Z,2.24
2018-11-21T13:42:42.422Z,2.07
2018-11-21T13:45:31.053Z,2.12
2018-11-21T13:48:22.694Z,2.12
2018-11-21T13:51:10.124Z,1.96
2018-11-21T13:54:10.740Z,2.00
2018-11-21T13:56:40.516Z,2.04
2018-11-21T13:59:10.210Z,1.83
2018-11-21T14:01:39.857Z,1.96
2018-11-21T14:04:09.496Z,1.86
2018-11-21T14:06:39.723Z,1.96
2018-11-21T14:09:12.287Z,1.94
2018-11-21T14:11:41.964Z,1.98
2018-11-21T14:14:11.728Z,2.06
2018-11-21T14:16:41.370Z,1.97
2018-11-21T14:19:11.122Z,2.03
2018-11-21T14:21:40.797Z,1.84
2018-11-21T14:24:10.502Z,1.85
2018-11-21T14:26:40.194Z,1.94
2018-11-21T14:29:09.916Z,1.88
2018-11-21T14:31:39.594Z,1.98
2018-11-21T14:34:09.337Z,2.00
2018-11-21T14:36:38.957Z,1.96
2018-11-21T14:39:12.443Z,2.12
2018-11-21T14:41:43.195Z,2.14
2018-11-21T14:44:12.914Z,2.33
2018-11-21T14:46:46.373Z,2.07
2018-11-21T14:49:14.830Z,1.91
2018-11-21T14:51:44.539Z,1.89
2018-11-21T14:54:14.245Z,1.88
2018-11-21T14:56:43.942Z,1.80
2018-11-21T14:59:13.756Z,1.84
2018-11-21T15:01:43.528Z,1.93
2018-11-21T15:04:13.257Z,1.93
2018-11-21T15:06:43.026Z,1.94
2018-11-21T15:09:13.614Z,1.76
2018-11-21T15:11:43.753Z,1.89
2018-11-21T15:14:13.431Z,1.82
2018-11-21T15:16:43.126Z,1.77
2018-11-21T15:19:12.829Z,1.74
2018-11-21T15:21:42.455Z,1.61
2018-11-21T15:24:12.116Z,1.68
2018-11-21T15:26:41.768Z,1.65
2018-11-21T15:29:11.515Z,1.75
2018-11-21T15:31:41.335Z,1.75
2018-11-21T15:34:11.051Z,1.74
2018-11-21T15:36:40.952Z,1.89
2018-11-21T15:39:12.170Z,1.93
2018-11-21T15:41:42.083Z,1.72
2018-11-21T15:44:11.828Z,1.84
2018-11-21T15:46:45.664Z,1.72
2018-11-21T15:49:11.267Z,1.79
2018-11-21T15:51:41.476Z,1.76
2018-11-21T15:54:11.146Z,1.71
2018-11-21T15:56:40.935Z,1.72
2018-11-21T15:59:10.643Z,1.94
2018-11-21T16:01:40.480Z,1.68
2018-11-21T16:04:10.496Z,1.58
2018-11-21T16:06:40.884Z,1.72
2018-11-21T16:09:12.576Z,1.72
2018-11-21T16:11:42.655Z,1.67
2018-11-21T16:14:12.784Z,1.58
2018-11-21T16:16:43.721Z,1.55
2018-11-21T16:19:13.743Z,1.56
2018-11-21T16:21:43.673Z,1.59
2018-11-21T16:24:14.287Z,1.60
2018-11-21T16:26:44.167Z,1.65
2018-11-21T16:29:13.914Z,1.57
2018-11-21T16:31:43.751Z,1.66
2018-11-21T16:34:15.479Z,1.55
2018-11-21T16:37:06.287Z,1.51
2018-11-21T16:39:36.811Z,1.70
2018-11-21T16:42:06.441Z,1.43
2018-11-21T16:44:36.632Z,1.40
2018-11-21T16:47:07.103Z,1.51
2018-11-21T16:49:40.308Z,1.63
2018-11-21T16:52:10.515Z,1.57
2018-11-21T16:54:47.295Z,1.59
2018-11-21T16:57:12.869Z,1.48
2018-11-21T16:59:42.577Z,1.39
2018-11-21T17:02:12.769Z,1.38
2018-11-21T17:04:55.237Z,1.47
2018-11-21T17:07:23.366Z,1.45
2018-11-21T17:09:59.331Z,1.47
2018-11-21T17:12:37.771Z,1.39
2018-11-21T17:15:12.106Z,1.32
2018-11-21T17:17:42.048Z,1.26
2018-11-21T17:20:16.827Z,1.29
2018-11-21T17:22:49.719Z,1.32
2018-11-21T17:25:21.336Z,1.29
2018-11-21T17:27:52.391Z,1.36
2018-11-21T17:30:22.998Z,1.47
2018-11-21T17:32:53.020Z,1.45
2018-11-21T17:35:23.487Z,1.37
2018-11-21T17:37:54.038Z,1.37
2018-11-21T17:40:29.308Z,1.43
2018-11-21T17:42:59.388Z,1.67
2018-11-21T17:45:29.209Z,1.59
2018-11-21T17:47:58.999Z,1.43
2018-11-21T17:50:30.801Z,1.45
2018-11-21T17:53:02.290Z,1.45
2018-11-21T17:55:33.024Z,1.45
2018-11-21T17:58:02.799Z,1.43
2018-11-21T18:00:33.018Z,1.42
2018-11-21T18:03:02.938Z,1.35
2018-11-21T18:05:34.555Z,1.53
2018-11-21T18:08:04.546Z,1.44
2018-11-21T18:10:36.167Z,1.41
2018-11-21T18:13:06.641Z,1.48
2018-11-21T18:15:36.404Z,1.43
2018-11-21T18:18:06.753Z,1.58
2018-11-21T18:20:37.306Z,1.61
2018-11-21T18:23:08.532Z,1.59
2018-11-21T18:25:56.422Z,1.52
2018-11-21T18:28:28.916Z,1.48
2018-11-21T18:30:58.199Z,1.39
2018-11-21T18:33:28.622Z,1.41
2018-11-21T18:35:58.830Z,1.43
2018-11-21T18:38:29.050Z,1.48
2018-11-21T18:40:59.370Z,1.46
2018-11-21T18:43:29.503Z,1.57
2018-11-21T18:45:59.406Z,1.53
2018-11-21T18:48:31.666Z,1.61
2018-11-21T18:51:01.548Z,1.60
2018-11-21T18:53:31.564Z,1.40
2018-11-21T18:56:19.321Z,1.35
2018-11-21T18:59:03.650Z,1.38
2018-11-21T19:01:33.788Z,1.38
2018-11-21T19:04:04.042Z,1.31
2018-11-21T19:06:34.565Z,1.41
2018-11-21T19:09:14.246Z,1.33
2018-11-21T19:11:47.448Z,1.40
2018-11-21T19:14:17.354Z,1.32
2018-11-21T19:16:50.325Z,1.36
2018-11-21T19:28:37.731Z,0.25
2018-11-21T19:31:17.727Z,1.24
2018-11-21T19:33:46.661Z,1.25
2018-11-21T19:37:03.638Z,1.25
2018-11-21T19:38:53.883Z,1.23
2018-11-21T19:41:42.586Z,1.29
2018-11-21T19:49:48.110Z,0.43
2018-11-21T19:52:25.311Z,1.33
2018-11-21T19:55:17.902Z,1.30
2018-11-21T19:57:44.537Z,1.35
2018-11-21T20:00:20.599Z,1.26
2018-11-21T20:02:50.469Z,1.22
2018-11-21T20:05:20.362Z,1.21
2018-11-21T20:07:50.109Z,1.27
2018-11-21T20:10:20.561Z,1.29
2018-11-21T20:12:50.596Z,1.33
2018-11-21T20:15:21.776Z,1.34
2018-11-21T20:17:53.425Z,1.26
2018-11-21T20:20:25.023Z,1.26
2018-11-21T20:22:55.127Z,1.25
2018-11-21T20:25:25.762Z,1.31
2018-11-21T20:27:56.078Z,1.26
2018-11-21T20:30:32.232Z,1.26
2018-11-21T20:33:02.317Z,1.21
2018-11-21T20:35:32.406Z,1.30
2018-11-21T20:38:02.529Z,1.27
2018-11-21T20:40:34.121Z,1.28
2018-11-21T20:43:04.567Z,1.30
2018-11-21T20:45:34.651Z,1.28
2018-11-21T20:48:04.722Z,1.27
2018-11-21T20:50:34.594Z,1.34
2018-11-21T20:53:04.544Z,1.30
2018-11-21T20:55:35.061Z,1.33
2018-11-21T20:58:04.972Z,1.31
2018-11-21T21:00:34.779Z,1.29
2018-11-21T21:05:34.581Z,1.32
2018-11-21T21:08:04.350Z,1.30
2018-11-21T21:10:34.300Z,1.36
2018-11-21T21:13:03.737Z,1.38
2018-11-21T21:15:33.540Z,1.40
2018-11-21T21:18:03.805Z,1.41
2018-11-21T21:20:33.073Z,1.34
2018-11-21T21:23:03.001Z,1.33
2018-11-21T21:25:32.628Z,1.40
2018-11-21T21:28:02.329Z,1.43
2018-11-21T21:31:07.193Z,1.36
2018-11-21T21:33:38.665Z,1.34
2018-11-21T21:36:07.909Z,1.35
2018-11-21T21:38:37.458Z,1.37
2018-11-21T21:41:07.088Z,1.37
2018-11-21T21:43:36.835Z,1.53
2018-11-21T21:46:09.165Z,1.53
2018-11-21T21:48:37.357Z,1.53
2018-11-21T21:51:07.633Z,1.39
2018-11-21T21:53:37.796Z,1.44
2018-11-21T21:56:07.473Z,1.38
2018-11-21T21:58:37.705Z,1.45
2018-11-21T22:01:07.464Z,1.42
2018-11-21T22:06:41.268Z,1.61
2018-11-21T22:09:12.265Z,1.53
2018-11-21T22:11:42.300Z,1.45
2018-11-21T22:14:13.373Z,1.58
2018-11-21T22:16:42.197Z,1.45
2018-11-21T22:19:11.534Z,1.46
2018-11-21T22:21:41.080Z,1.55
2018-11-21T22:24:10.644Z,1.55
2018-11-21T22:26:40.152Z,1.59
2018-11-21T22:29:09.768Z,1.55
2018-11-21T22:31:41.082Z,1.65
2018-11-21T22:34:10.528Z,1.67
2018-11-21T22:36:40.604Z,1.66
2018-11-21T22:39:13.760Z,1.61
2018-11-21T22:41:43.275Z,1.57
2018-11-21T22:44:12.899Z,1.60
2018-11-21T22:46:42.504Z,1.62
2018-11-21T22:49:12.125Z,1.65
2018-11-21T22:51:42.111Z,1.59
2018-11-21T22:54:11.476Z,1.71
2018-11-21T22:56:41.532Z,1.68
2018-11-21T22:59:11.116Z,1.62
2018-11-21T23:01:41.566Z,1.67
2018-11-21T23:04:11.009Z,1.65
2018-11-21T23:06:40.516Z,1.66
2018-11-21T23:09:11.529Z,1.65
2018-11-21T23:11:41.721Z,1.63
2018-11-21T23:14:11.108Z,1.60
2018-11-21T23:16:40.565Z,1.60
2018-11-21T23:19:10.060Z,1.64
2018-11-21T23:21:39.551Z,1.62
2018-11-21T23:24:09.455Z,1.58
2018-11-21T23:26:39.360Z,1.62
2018-11-21T23:29:09.142Z,1.72
2018-11-21T23:31:39.172Z,1.73
2018-11-21T23:34:09.544Z,1.67
2018-11-21T23:36:38.923Z,1.66
2018-11-21T23:39:10.308Z,1.65
2018-11-21T23:41:40.336Z,1.74
2018-11-21T23:44:09.801Z,1.74
2018-11-21T23:46:39.723Z,1.72
2018-11-21T23:49:09.183Z,1.68
2018-11-21T23:51:39.149Z,1.80
2018-11-21T23:54:13.206Z,1.73
2018-11-21T23:56:43.050Z,1.73
2018-11-21T23:59:12.920Z,1.69
